This is the latest recevied weather packets stored in our database for station/object KB1WCR. If no packets are shown the sender has not sent any weather packets the latest 10 day(s).
| Time | Temp. | Humidity | Pressure | Rain* | Wind** | Luminosity | Snow |
|---|---|---|---|---|---|---|---|
| 1788284068 | 22.78° C | 65% | 1018.3 hPa | 0 mm | - | 404 W/m² | - |
| 1788283765 | 22.78° C | 66% | 1018 hPa | 0 mm | - | 634 W/m² | - |
| 1788283460 | 23.33° C | 64% | 1018.1 hPa | 0 mm | - | 340 W/m² | - |
| 1788283158 | 23.89° C | 64% | 1017.9 hPa | 0 mm | - | 573 W/m² | - |
| 1788282856 | 23.89° C | 66% | 1018 hPa | 0 mm | - | 771 W/m² | - |
| 1788282554 | 23.89° C | 62% | 1017.9 hPa | 0 mm | - | 451 W/m² | - |
| 1788282244 | 23.33° C | 65% | 1018.1 hPa | 0 mm | - | 511 W/m² | - |
| 1788281943 | 22.78° C | 65% | 1018.1 hPa | 0 mm | - | 617 W/m² | - |
| 1788281638 | 23.33° C | 66% | 1018.2 hPa | 0 mm | - | 506 W/m² | - |
| 1788281335 | 22.78° C | 66% | 1018.1 hPa | 0 mm | - | 556 W/m² | - |
| 1788281030 | 22.22° C | 68% | 1018.3 hPa | 0 mm | - | 555 W/m² | - |
| 1788280733 | 22.22° C | 68% | 1018.3 hPa | 0 mm | - | 557 W/m² | - |
| 1788280424 | 21.67° C | 69% | 1018.2 hPa | 0 mm | - | 455 W/m² | - |
| 1788280119 | 21.67° C | 70% | 1018.4 hPa | 0 mm | - | 378 W/m² | - |
| 1788279818 | 21.67° C | 70% | 1018.2 hPa | 0 mm | - | 325 W/m² | - |
| 1788279512 | 21.67° C | 72% | 1018.3 hPa | 0 mm | - | 376 W/m² | - |
| 1788279207 | 21.67° C | 71% | 1018.3 hPa | 0 mm | - | 293 W/m² | - |
| 1788278902 | 21.67° C | 70% | 1018.3 hPa | 0 mm | - | 288 W/m² | - |
| 1788278599 | 21.67° C | 69% | 1018.4 hPa | 0 mm | - | 358 W/m² | - |
| 1788278297 | 21.67° C | 68% | 1018.3 hPa | 0 mm | - | 352 W/m² | - |
| 1788277992 | 21.67° C | 69% | 1018.4 hPa | 0 mm | - | 373 W/m² | - |
| 1788277689 | 21.67° C | 70% | 1018.5 hPa | 0 mm | - | 493 W/m² | - |
| 1788277388 | 21.11° C | 70% | 1018.5 hPa | 0 mm | - | 508 W/m² | - |
| 1788277083 | 21.11° C | 70% | 1018.4 hPa | 0 mm | - | 431 W/m² | - |
| 1788276783 | 21.67° C | 68% | 1018.5 hPa | 0 mm | - | 517 W/m² | - |
* Rain latest hour (hover to see other rain measurements)
** Current wind speed in m/s (hover to see current wind gust speed)